KMWC/MWC METAR and TAF weather

Enter ICAO airport designator
Station Type Date Time Source
KMWC METAR 2019/06/17 04:35 UTC NOAA

KMWC 170435Z AUTO 02004KT 10SM OVC024 12/08 A2999 RMK AO2


Station Type Date Time Source
KMWC Decoded METAR 2019/06/17 04:35 UTC NOAA

Milwaukee / Timmerman, WI, United States (KMWC) 43-07N 088-02W
Jun 17, 2019 - 12:35 AM EDT / 2019.06.17 0435 UTC
Wind: from the NNE (020 degrees) at 5 MPH (4 KT):0
Visibility: 10 mile(s):0
Sky conditions: overcast
Temperature: 53 F (12 C)
Dew Point: 46 F (8 C)
Relative Humidity: 76%
Pressure (altimeter): 29.99 in. Hg (1015 hPa)
ob: KMWC 170435Z AUTO 02004KT 10SM OVC024 12/08 A2999 RMK AO2
cycle: 4

Station Type Date Time Source
KMWC TAF UTC NOAA

Error!

Example: see airport list